sensor_id;sensor_type;location;lat;lon;timestamp;pressure;altitude;pressure_sealevel;temperature;humidity
80102;BME280;69407;44.966;19.622;2023-12-22T00:01:05;98957.22;;;5.93;100.00
80102;BME280;69407;44.966;19.622;2023-12-22T00:03:31;98951.75;;;6.13;100.00
80102;BME280;69407;44.966;19.622;2023-12-22T00:05:56;98955.31;;;5.79;100.00
80102;BME280;69407;44.966;19.622;2023-12-22T00:08:22;98967.69;;;5.43;100.00
80102;BME280;69407;44.966;19.622;2023-12-22T00:10:49;98963.88;;;5.83;100.00
80102;BME280;69407;44.966;19.622;2023-12-22T00:13:14;98963.59;;;5.54;100.00
80102;BME280;69407;44.966;19.622;2023-12-22T00:15:40;98958.69;;;5.48;100.00
80102;BME280;69407;44.966;19.622;2023-12-22T00:18:07;98948.66;;;5.89;100.00
80102;BME280;69407;44.966;19.622;2023-12-22T00:20:33;98943.78;;;5.66;100.00
80102;BME280;69407;44.966;19.622;2023-12-22T00:22:59;98948.81;;;5.86;100.00
80102;BME280;69407;44.966;19.622;2023-12-22T00:25:24;98942.44;;;5.75;100.00
80102;BME280;69407;44.966;19.622;2023-12-22T00:27:49;98946.56;;;5.63;100.00
80102;BME280;69407;44.966;19.622;2023-12-22T00:30:15;98951.72;;;5.65;100.00
80102;BME280;69407;44.966;19.622;2023-12-22T00:32:41;98952.31;;;5.37;100.00
80102;BME280;69407;44.966;19.622;2023-12-22T00:35:06;98946.69;;;5.10;100.00
80102;BME280;69407;44.966;19.622;2023-12-22T00:37:32;98945.53;;;5.15;100.00
80102;BME280;69407;44.966;19.622;2023-12-22T00:39:57;98947.66;;;5.42;100.00
80102;BME280;69407;44.966;19.622;2023-12-22T00:42:23;98939.94;;;5.56;100.00
80102;BME280;69407;44.966;19.622;2023-12-22T00:44:48;98946.19;;;5.53;100.00
80102;BME280;69407;44.966;19.622;2023-12-22T00:47:14;98947.38;;;5.48;100.00
80102;BME280;69407;44.966;19.622;2023-12-22T00:49:39;98948.94;;;5.68;100.00
80102;BME280;69407;44.966;19.622;2023-12-22T00:52:05;98956.00;;;5.50;100.00
80102;BME280;69407;44.966;19.622;2023-12-22T00:54:30;98950.19;;;5.43;100.00
80102;BME280;69407;44.966;19.622;2023-12-22T00:56:57;98960.59;;;5.45;100.00
80102;BME280;69407;44.966;19.622;2023-12-22T00:59:23;98957.75;;;5.49;100.00
80102;BME280;69407;44.966;19.622;2023-12-22T01:01:49;98966.63;;;5.47;100.00
80102;BME280;69407;44.966;19.622;2023-12-22T01:04:14;98957.00;;;5.47;100.00
80102;BME280;69407;44.966;19.622;2023-12-22T01:06:40;98957.63;;;5.35;100.00
80102;BME280;69407;44.966;19.622;2023-12-22T01:09:06;98950.81;;;5.81;100.00
80102;BME280;69407;44.966;19.622;2023-12-22T01:11:31;98958.56;;;5.67;100.00
80102;BME280;69407;44.966;19.622;2023-12-22T01:13:57;98952.53;;;5.49;100.00
80102;BME280;69407;44.966;19.622;2023-12-22T01:16:23;98950.50;;;5.54;100.00
80102;BME280;69407;44.966;19.622;2023-12-22T01:18:49;98941.41;;;5.62;100.00
80102;BME280;69407;44.966;19.622;2023-12-22T01:21:18;98930.59;;;5.35;100.00
80102;BME280;69407;44.966;19.622;2023-12-22T01:23:43;98920.25;;;5.82;100.00
80102;BME280;69407;44.966;19.622;2023-12-22T01:26:09;98919.91;;;5.55;100.00
80102;BME280;69407;44.966;19.622;2023-12-22T01:28:34;98916.47;;;5.37;100.00
80102;BME280;69407;44.966;19.622;2023-12-22T01:31:00;98912.13;;;5.53;100.00
80102;BME280;69407;44.966;19.622;2023-12-22T01:33:26;98915.19;;;5.62;100.00
80102;BME280;69407;44.966;19.622;2023-12-22T01:35:51;98906.72;;;5.56;100.00
80102;BME280;69407;44.966;19.622;2023-12-22T01:38:17;98907.56;;;5.57;100.00
80102;BME280;69407;44.966;19.622;2023-12-22T01:40:43;98901.63;;;5.71;100.00
80102;BME280;69407;44.966;19.622;2023-12-22T01:43:08;98914.44;;;5.09;100.00
80102;BME280;69407;44.966;19.622;2023-12-22T01:45:34;98910.53;;;5.51;100.00
80102;BME280;69407;44.966;19.622;2023-12-22T01:47:59;98904.63;;;5.63;100.00
80102;BME280;69407;44.966;19.622;2023-12-22T01:50:25;98906.34;;;5.80;100.00
80102;BME280;69407;44.966;19.622;2023-12-22T01:52:51;98900.72;;;5.54;100.00
80102;BME280;69407;44.966;19.622;2023-12-22T01:55:17;98896.84;;;5.62;100.00
80102;BME280;69407;44.966;19.622;2023-12-22T01:57:43;98893.19;;;4.98;100.00
80102;BME280;69407;44.966;19.622;2023-12-22T02:00:09;98894.78;;;5.35;100.00
80102;BME280;69407;44.966;19.622;2023-12-22T02:02:36;98891.91;;;5.40;100.00
80102;BME280;69407;44.966;19.622;2023-12-22T02:05:04;98886.59;;;5.57;100.00
80102;BME280;69407;44.966;19.622;2023-12-22T02:07:30;98883.31;;;5.53;100.00
80102;BME280;69407;44.966;19.622;2023-12-22T02:09:56;98883.38;;;5.36;100.00
80102;BME280;69407;44.966;19.622;2023-12-22T02:12:22;98887.88;;;5.50;100.00
80102;BME280;69407;44.966;19.622;2023-12-22T02:14:47;98878.44;;;5.63;100.00
80102;BME280;69407;44.966;19.622;2023-12-22T02:20:11;98887.03;;;5.49;100.00
80102;BME280;69407;44.966;19.622;2023-12-22T02:22:36;98889.41;;;5.54;100.00
80102;BME280;69407;44.966;19.622;2023-12-22T02:25:02;98885.09;;;5.69;100.00
80102;BME280;69407;44.966;19.622;2023-12-22T02:32:35;98897.06;;;5.74;100.00
80102;BME280;69407;44.966;19.622;2023-12-22T02:35:05;98907.38;;;5.77;100.00
80102;BME280;69407;44.966;19.622;2023-12-22T02:37:32;98923.38;;;5.55;100.00
80102;BME280;69407;44.966;19.622;2023-12-22T02:39:59;98935.13;;;5.14;100.00
80102;BME280;69407;44.966;19.622;2023-12-22T02:42:25;98944.31;;;5.22;100.00
80102;BME280;69407;44.966;19.622;2023-12-22T02:44:57;98970.44;;;5.57;100.00
80102;BME280;69407;44.966;19.622;2023-12-22T02:47:23;98980.59;;;6.13;100.00
80102;BME280;69407;44.966;19.622;2023-12-22T02:49:48;98993.78;;;5.79;100.00
80102;BME280;69407;44.966;19.622;2023-12-22T02:52:14;99010.97;;;5.84;100.00
80102;BME280;69407;44.966;19.622;2023-12-22T02:54:39;99010.03;;;5.85;100.00
80102;BME280;69407;44.966;19.622;2023-12-22T02:57:07;99038.19;;;5.82;100.00
80102;BME280;69407;44.966;19.622;2023-12-22T02:59:32;99048.94;;;5.95;100.00
80102;BME280;69407;44.966;19.622;2023-12-22T03:01:58;99075.91;;;5.97;100.00
80102;BME280;69407;44.966;19.622;2023-12-22T03:04:23;99072.75;;;5.90;100.00
80102;BME280;69407;44.966;19.622;2023-12-22T03:06:49;99092.31;;;6.00;100.00
80102;BME280;69407;44.966;19.622;2023-12-22T03:09:14;99115.53;;;5.91;100.00
80102;BME280;69407;44.966;19.622;2023-12-22T03:11:40;99124.75;;;6.32;100.00
80102;BME280;69407;44.966;19.622;2023-12-22T03:14:05;99135.16;;;6.34;100.00
80102;BME280;69407;44.966;19.622;2023-12-22T03:16:30;99139.34;;;6.21;100.00
80102;BME280;69407;44.966;19.622;2023-12-22T03:18:56;99144.75;;;6.17;100.00
80102;BME280;69407;44.966;19.622;2023-12-22T03:21:21;99149.00;;;6.20;100.00
80102;BME280;69407;44.966;19.622;2023-12-22T03:23:47;99153.19;;;6.40;100.00
80102;BME280;69407;44.966;19.622;2023-12-22T03:26:12;99155.53;;;6.46;100.00
80102;BME280;69407;44.966;19.622;2023-12-22T03:28:38;99147.75;;;6.60;100.00
80102;BME280;69407;44.966;19.622;2023-12-22T03:31:03;99147.75;;;6.60;100.00
80102;BME280;69407;44.966;19.622;2023-12-22T03:33:29;99152.94;;;6.78;100.00
80102;BME280;69407;44.966;19.622;2023-12-22T03:35:55;99146.72;;;6.80;100.00
80102;BME280;69407;44.966;19.622;2023-12-22T03:38:20;99145.38;;;7.04;100.00
80102;BME280;69407;44.966;19.622;2023-12-22T03:40:45;99116.88;;;7.13;100.00
80102;BME280;69407;44.966;19.622;2023-12-22T03:43:11;99145.94;;;7.25;100.00
80102;BME280;69407;44.966;19.622;2023-12-22T03:45:36;99137.13;;;7.26;100.00
80102;BME280;69407;44.966;19.622;2023-12-22T03:48:02;99147.97;;;7.36;100.00
80102;BME280;69407;44.966;19.622;2023-12-22T03:50:27;99138.50;;;7.18;100.00
80102;BME280;69407;44.966;19.622;2023-12-22T03:52:53;99150.78;;;7.33;100.00
80102;BME280;69407;44.966;19.622;2023-12-22T03:55:18;99146.81;;;7.42;100.00
80102;BME280;69407;44.966;19.622;2023-12-22T03:57:44;99146.19;;;7.37;100.00
80102;BME280;69407;44.966;19.622;2023-12-22T04:00:10;99139.00;;;7.40;100.00
80102;BME280;69407;44.966;19.622;2023-12-22T04:02:35;99134.91;;;7.66;100.00
80102;BME280;69407;44.966;19.622;2023-12-22T04:05:01;99144.56;;;7.50;100.00
80102;BME280;69407;44.966;19.622;2023-12-22T04:07:26;99147.53;;;7.59;100.00
80102;BME280;69407;44.966;19.622;2023-12-22T04:09:51;99147.22;;;7.02;100.00
80102;BME280;69407;44.966;19.622;2023-12-22T04:12:17;99146.38;;;7.02;100.00
80102;BME280;69407;44.966;19.622;2023-12-22T04:14:42;99153.66;;;6.97;100.00
80102;BME280;69407;44.966;19.622;2023-12-22T04:17:08;99152.47;;;7.34;100.00
80102;BME280;69407;44.966;19.622;2023-12-22T04:19:33;99153.09;;;7.08;100.00
80102;BME280;69407;44.966;19.622;2023-12-22T04:21:59;99147.13;;;6.88;100.00
80102;BME280;69407;44.966;19.622;2023-12-22T04:24:24;99157.47;;;6.91;100.00
80102;BME280;69407;44.966;19.622;2023-12-22T04:26:50;99167.50;;;7.16;100.00
80102;BME280;69407;44.966;19.622;2023-12-22T04:29:15;99157.22;;;7.43;100.00
80102;BME280;69407;44.966;19.622;2023-12-22T04:31:41;99151.94;;;7.59;100.00
80102;BME280;69407;44.966;19.622;2023-12-22T04:34:06;99160.50;;;7.62;100.00
80102;BME280;69407;44.966;19.622;2023-12-22T04:36:32;99150.34;;;7.56;100.00
80102;BME280;69407;44.966;19.622;2023-12-22T04:38:57;99162.44;;;7.59;100.00
80102;BME280;69407;44.966;19.622;2023-12-22T04:41:22;99167.38;;;7.65;100.00
80102;BME280;69407;44.966;19.622;2023-12-22T04:43:48;99177.47;;;7.57;100.00
80102;BME280;69407;44.966;19.622;2023-12-22T04:46:14;99175.88;;;7.23;100.00
80102;BME280;69407;44.966;19.622;2023-12-22T04:48:39;99171.91;;;7.31;100.00
80102;BME280;69407;44.966;19.622;2023-12-22T04:51:05;99185.28;;;7.58;100.00
80102;BME280;69407;44.966;19.622;2023-12-22T04:53:30;99185.63;;;7.05;100.00
80102;BME280;69407;44.966;19.622;2023-12-22T04:55:55;99181.81;;;6.78;100.00
80102;BME280;69407;44.966;19.622;2023-12-22T04:58:21;99182.81;;;6.92;100.00
80102;BME280;69407;44.966;19.622;2023-12-22T05:00:47;99188.34;;;6.70;100.00
80102;BME280;69407;44.966;19.622;2023-12-22T05:03:13;99195.81;;;7.27;100.00
80102;BME280;69407;44.966;19.622;2023-12-22T05:05:38;99213.53;;;7.39;100.00
80102;BME280;69407;44.966;19.622;2023-12-22T05:08:04;99203.44;;;7.31;100.00
80102;BME280;69407;44.966;19.622;2023-12-22T05:10:29;99209.00;;;7.25;100.00
80102;BME280;69407;44.966;19.622;2023-12-22T05:12:55;99218.78;;;7.39;100.00
80102;BME280;69407;44.966;19.622;2023-12-22T05:15:20;99217.41;;;7.48;100.00
80102;BME280;69407;44.966;19.622;2023-12-22T05:17:46;99214.38;;;7.40;100.00
80102;BME280;69407;44.966;19.622;2023-12-22T05:20:11;99227.06;;;7.47;100.00
80102;BME280;69407;44.966;19.622;2023-12-22T05:22:37;99221.25;;;7.42;100.00
80102;BME280;69407;44.966;19.622;2023-12-22T05:25:02;99221.66;;;7.34;100.00
80102;BME280;69407;44.966;19.622;2023-12-22T05:27:28;99229.63;;;7.33;100.00
80102;BME280;69407;44.966;19.622;2023-12-22T05:29:54;99240.97;;;7.49;100.00
80102;BME280;69407;44.966;19.622;2023-12-22T05:32:19;99226.31;;;7.77;100.00
80102;BME280;69407;44.966;19.622;2023-12-22T05:34:44;99224.03;;;7.55;100.00
80102;BME280;69407;44.966;19.622;2023-12-22T05:37:10;99217.44;;;6.99;100.00
80102;BME280;69407;44.966;19.622;2023-12-22T05:39:35;99234.22;;;6.63;100.00
80102;BME280;69407;44.966;19.622;2023-12-22T05:42:01;99225.69;;;6.75;100.00
80102;BME280;69407;44.966;19.622;2023-12-22T05:44:26;99226.03;;;6.52;100.00
80102;BME280;69407;44.966;19.622;2023-12-22T05:46:56;99222.94;;;6.61;100.00
80102;BME280;69407;44.966;19.622;2023-12-22T05:49:22;99235.00;;;7.14;100.00
80102;BME280;69407;44.966;19.622;2023-12-22T05:51:48;99249.31;;;6.75;100.00
80102;BME280;69407;44.966;19.622;2023-12-22T05:54:15;99242.84;;;7.16;100.00
80102;BME280;69407;44.966;19.622;2023-12-22T05:56:42;99248.59;;;7.22;100.00
80102;BME280;69407;44.966;19.622;2023-12-22T05:59:07;99239.19;;;7.18;100.00
80102;BME280;69407;44.966;19.622;2023-12-22T06:01:33;99251.88;;;7.26;100.00
80102;BME280;69407;44.966;19.622;2023-12-22T06:03:58;99259.47;;;7.32;100.00
80102;BME280;69407;44.966;19.622;2023-12-22T06:06:23;99265.34;;;7.53;100.00
80102;BME280;69407;44.966;19.622;2023-12-22T06:08:49;99274.03;;;7.38;100.00
80102;BME280;69407;44.966;19.622;2023-12-22T06:11:15;99271.09;;;7.44;100.00
80102;BME280;69407;44.966;19.622;2023-12-22T06:13:40;99275.03;;;7.19;100.00
80102;BME280;69407;44.966;19.622;2023-12-22T06:16:09;99267.91;;;7.21;100.00
80102;BME280;69407;44.966;19.622;2023-12-22T06:18:35;99282.91;;;7.19;100.00
80102;BME280;69407;44.966;19.622;2023-12-22T06:21:00;99289.03;;;7.20;100.00
80102;BME280;69407;44.966;19.622;2023-12-22T06:23:26;99300.78;;;7.13;100.00
80102;BME280;69407;44.966;19.622;2023-12-22T06:25:51;99307.78;;;7.29;100.00
80102;BME280;69407;44.966;19.622;2023-12-22T06:28:17;99317.00;;;7.37;100.00
80102;BME280;69407;44.966;19.622;2023-12-22T06:30:43;99310.50;;;7.28;100.00
80102;BME280;69407;44.966;19.622;2023-12-22T06:33:09;99316.69;;;7.27;100.00
80102;BME280;69407;44.966;19.622;2023-12-22T06:35:35;99316.19;;;7.03;100.00
80102;BME280;69407;44.966;19.622;2023-12-22T06:38:00;99313.94;;;6.78;100.00
80102;BME280;69407;44.966;19.622;2023-12-22T06:40:29;99315.28;;;6.69;100.00
80102;BME280;69407;44.966;19.622;2023-12-22T06:42:54;99311.91;;;6.67;100.00
80102;BME280;69407;44.966;19.622;2023-12-22T06:45:20;99303.78;;;6.72;100.00
80102;BME280;69407;44.966;19.622;2023-12-22T06:47:45;99301.09;;;6.56;100.00
80102;BME280;69407;44.966;19.622;2023-12-22T06:50:11;99312.88;;;6.65;100.00
80102;BME280;69407;44.966;19.622;2023-12-22T06:52:36;99308.72;;;7.11;100.00
80102;BME280;69407;44.966;19.622;2023-12-22T06:55:02;99301.28;;;7.03;100.00
80102;BME280;69407;44.966;19.622;2023-12-22T06:57:27;99298.19;;;6.78;100.00
80102;BME280;69407;44.966;19.622;2023-12-22T06:59:53;99301.94;;;6.57;100.00
80102;BME280;69407;44.966;19.622;2023-12-22T07:02:18;99298.06;;;6.64;100.00
80102;BME280;69407;44.966;19.622;2023-12-22T07:05:48;99311.03;;;6.84;100.00
80102;BME280;69407;44.966;19.622;2023-12-22T07:07:50;99309.72;;;6.93;100.00
80102;BME280;69407;44.966;19.622;2023-12-22T07:10:18;99309.06;;;6.88;100.00
80102;BME280;69407;44.966;19.622;2023-12-22T07:12:44;99303.81;;;7.05;100.00
80102;BME280;69407;44.966;19.622;2023-12-22T07:15:09;99308.44;;;7.17;100.00
80102;BME280;69407;44.966;19.622;2023-12-22T07:17:36;99301.59;;;7.30;100.00
80102;BME280;69407;44.966;19.622;2023-12-22T07:20:01;99318.28;;;7.29;100.00
80102;BME280;69407;44.966;19.622;2023-12-22T07:22:28;99331.34;;;7.14;100.00
80102;BME280;69407;44.966;19.622;2023-12-22T07:24:54;99334.78;;;7.16;100.00
80102;BME280;69407;44.966;19.622;2023-12-22T07:27:21;99349.00;;;7.45;100.00
80102;BME280;69407;44.966;19.622;2023-12-22T07:30:05;99346.94;;;7.34;100.00
80102;BME280;69407;44.966;19.622;2023-12-22T07:32:30;99320.94;;;7.45;100.00
80102;BME280;69407;44.966;19.622;2023-12-22T07:34:56;99315.09;;;7.56;100.00
80102;BME280;69407;44.966;19.622;2023-12-22T07:37:21;99332.00;;;7.68;100.00
80102;BME280;69407;44.966;19.622;2023-12-22T07:39:47;99337.69;;;7.76;100.00
80102;BME280;69407;44.966;19.622;2023-12-22T07:42:12;99343.03;;;8.06;100.00
80102;BME280;69407;44.966;19.622;2023-12-22T07:44:38;99354.06;;;7.97;100.00
80102;BME280;69407;44.966;19.622;2023-12-22T07:47:03;99364.66;;;7.79;100.00
80102;BME280;69407;44.966;19.622;2023-12-22T07:49:30;99356.84;;;8.09;100.00
80102;BME280;69407;44.966;19.622;2023-12-22T07:51:55;99343.72;;;8.25;100.00
80102;BME280;69407;44.966;19.622;2023-12-22T07:54:21;99343.63;;;8.42;100.00
80102;BME280;69407;44.966;19.622;2023-12-22T07:56:46;99330.16;;;8.47;100.00
80102;BME280;69407;44.966;19.622;2023-12-22T07:59:12;99347.78;;;8.76;100.00
80102;BME280;69407;44.966;19.622;2023-12-22T08:01:37;99361.97;;;8.12;100.00
80102;BME280;69407;44.966;19.622;2023-12-22T08:04:03;99384.72;;;8.13;100.00
80102;BME280;69407;44.966;19.622;2023-12-22T08:06:48;99375.88;;;8.30;100.00
80102;BME280;69407;44.966;19.622;2023-12-22T08:09:14;99372.50;;;8.12;100.00
80102;BME280;69407;44.966;19.622;2023-12-22T08:11:39;99386.06;;;8.05;100.00
80102;BME280;69407;44.966;19.622;2023-12-22T08:14:05;99388.59;;;8.22;100.00
80102;BME280;69407;44.966;19.622;2023-12-22T08:16:30;99376.38;;;7.89;100.00
80102;BME280;69407;44.966;19.622;2023-12-22T08:18:57;99386.72;;;7.92;100.00
80102;BME280;69407;44.966;19.622;2023-12-22T08:21:23;99395.13;;;7.99;100.00
80102;BME280;69407;44.966;19.622;2023-12-22T08:23:48;99386.94;;;7.56;100.00
80102;BME280;69407;44.966;19.622;2023-12-22T08:26:14;99387.41;;;7.47;100.00
80102;BME280;69407;44.966;19.622;2023-12-22T08:28:42;99376.59;;;7.53;100.00
80102;BME280;69407;44.966;19.622;2023-12-22T08:31:07;99379.25;;;7.85;100.00
80102;BME280;69407;44.966;19.622;2023-12-22T08:33:33;99405.22;;;7.91;100.00
80102;BME280;69407;44.966;19.622;2023-12-22T08:35:58;99404.22;;;7.60;100.00
80102;BME280;69407;44.966;19.622;2023-12-22T08:38:24;99409.56;;;7.92;100.00
80102;BME280;69407;44.966;19.622;2023-12-22T08:40:49;99429.19;;;8.02;100.00
80102;BME280;69407;44.966;19.622;2023-12-22T08:43:15;99427.88;;;7.78;100.00
80102;BME280;69407;44.966;19.622;2023-12-22T08:45:40;99428.72;;;7.78;100.00
80102;BME280;69407;44.966;19.622;2023-12-22T08:48:06;99439.84;;;7.99;100.00
80102;BME280;69407;44.966;19.622;2023-12-22T08:50:34;99449.88;;;8.08;100.00
80102;BME280;69407;44.966;19.622;2023-12-22T08:52:59;99448.81;;;8.12;100.00
80102;BME280;69407;44.966;19.622;2023-12-22T08:55:25;99455.22;;;7.91;100.00
80102;BME280;69407;44.966;19.622;2023-12-22T08:57:50;99458.25;;;7.99;100.00
80102;BME280;69407;44.966;19.622;2023-12-22T09:00:16;99448.53;;;7.68;100.00
80102;BME280;69407;44.966;19.622;2023-12-22T09:02:41;99468.38;;;7.41;100.00
80102;BME280;69407;44.966;19.622;2023-12-22T09:05:07;99458.41;;;7.80;100.00
80102;BME280;69407;44.966;19.622;2023-12-22T09:07:33;99458.63;;;8.09;100.00
80102;BME280;69407;44.966;19.622;2023-12-22T09:09:58;99457.84;;;8.07;100.00
80102;BME280;69407;44.966;19.622;2023-12-22T09:12:24;99453.97;;;8.14;100.00
80102;BME280;69407;44.966;19.622;2023-12-22T09:14:50;99469.00;;;8.12;100.00
80102;BME280;69407;44.966;19.622;2023-12-22T09:17:15;99472.44;;;7.97;100.00
80102;BME280;69407;44.966;19.622;2023-12-22T09:19:41;99482.66;;;8.18;100.00
80102;BME280;69407;44.966;19.622;2023-12-22T09:22:08;99486.53;;;8.44;100.00
80102;BME280;69407;44.966;19.622;2023-12-22T09:24:33;99471.56;;;8.76;100.00
80102;BME280;69407;44.966;19.622;2023-12-22T09:26:59;99463.75;;;8.28;100.00
80102;BME280;69407;44.966;19.622;2023-12-22T09:29:31;99467.91;;;8.79;100.00
80102;BME280;69407;44.966;19.622;2023-12-22T09:32:01;99456.72;;;8.75;100.00
80102;BME280;69407;44.966;19.622;2023-12-22T09:34:26;99449.28;;;8.98;100.00
80102;BME280;69407;44.966;19.622;2023-12-22T09:36:54;99450.25;;;8.65;100.00
80102;BME280;69407;44.966;19.622;2023-12-22T09:39:20;99457.09;;;8.99;100.00
80102;BME280;69407;44.966;19.622;2023-12-22T09:41:48;99461.31;;;8.56;100.00
80102;BME280;69407;44.966;19.622;2023-12-22T09:44:15;99472.50;;;8.60;100.00
80102;BME280;69407;44.966;19.622;2023-12-22T09:46:43;99468.94;;;8.76;100.00
80102;BME280;69407;44.966;19.622;2023-12-22T09:49:09;99469.38;;;8.69;100.00
80102;BME280;69407;44.966;19.622;2023-12-22T09:51:35;99473.75;;;8.84;100.00
80102;BME280;69407;44.966;19.622;2023-12-22T09:54:04;99474.88;;;8.80;100.00
80102;BME280;69407;44.966;19.622;2023-12-22T09:56:30;99464.97;;;10.02;100.00
80102;BME280;69407;44.966;19.622;2023-12-22T09:58:56;99430.88;;;10.54;100.00
80102;BME280;69407;44.966;19.622;2023-12-22T10:01:22;99400.94;;;11.71;100.00
80102;BME280;69407;44.966;19.622;2023-12-22T10:03:49;99382.78;;;12.16;100.00
80102;BME280;69407;44.966;19.622;2023-12-22T10:06:15;99379.56;;;12.96;100.00
80102;BME280;69407;44.966;19.622;2023-12-22T10:08:43;99368.97;;;11.36;100.00
80102;BME280;69407;44.966;19.622;2023-12-22T10:11:11;99362.38;;;10.78;100.00
80102;BME280;69407;44.966;19.622;2023-12-22T10:13:37;99356.06;;;10.94;100.00
80102;BME280;69407;44.966;19.622;2023-12-22T10:16:06;99355.28;;;10.66;100.00
80102;BME280;69407;44.966;19.622;2023-12-22T10:18:33;99370.88;;;10.15;100.00
80102;BME280;69407;44.966;19.622;2023-12-22T10:21:01;99356.78;;;9.88;100.00
80102;BME280;69407;44.966;19.622;2023-12-22T10:23:27;99352.56;;;9.85;100.00
80102;BME280;69407;44.966;19.622;2023-12-22T10:25:53;99349.41;;;10.21;100.00
80102;BME280;69407;44.966;19.622;2023-12-22T10:28:21;99352.41;;;10.01;100.00
80102;BME280;69407;44.966;19.622;2023-12-22T10:30:50;99346.16;;;10.31;100.00
80102;BME280;69407;44.966;19.622;2023-12-22T10:33:15;99344.78;;;11.17;100.00
80102;BME280;69407;44.966;19.622;2023-12-22T10:35:41;99359.69;;;10.66;100.00
80102;BME280;69407;44.966;19.622;2023-12-22T10:38:07;99384.47;;;10.23;100.00
80102;BME280;69407;44.966;19.622;2023-12-22T10:40:33;99388.63;;;9.99;100.00
80102;BME280;69407;44.966;19.622;2023-12-22T10:42:59;99392.78;;;9.75;100.00
80102;BME280;69407;44.966;19.622;2023-12-22T10:45:25;99402.69;;;9.71;100.00
80102;BME280;69407;44.966;19.622;2023-12-22T10:47:51;99403.34;;;9.46;100.00
80102;BME280;69407;44.966;19.622;2023-12-22T10:50:19;99407.59;;;9.63;100.00
80102;BME280;69407;44.966;19.622;2023-12-22T10:52:51;99408.34;;;9.79;100.00
80102;BME280;69407;44.966;19.622;2023-12-22T10:55:17;99400.66;;;10.17;100.00
80102;BME280;69407;44.966;19.622;2023-12-22T10:57:46;99387.59;;;11.98;100.00
80102;BME280;69407;44.966;19.622;2023-12-22T11:00:14;99380.03;;;12.18;100.00
80102;BME280;69407;44.966;19.622;2023-12-22T11:02:42;99377.13;;;11.08;100.00
80102;BME280;69407;44.966;19.622;2023-12-22T11:05:10;99377.66;;;10.34;100.00
80102;BME280;69407;44.966;19.622;2023-12-22T11:07:36;99381.94;;;10.49;100.00
80102;BME280;69407;44.966;19.622;2023-12-22T11:10:06;99386.91;;;10.12;100.00
80102;BME280;69407;44.966;19.622;2023-12-22T11:12:34;99377.44;;;9.95;100.00
80102;BME280;69407;44.966;19.622;2023-12-22T11:15:01;99389.53;;;10.53;100.00
80102;BME280;69407;44.966;19.622;2023-12-22T11:17:28;99381.25;;;11.37;100.00
80102;BME280;69407;44.966;19.622;2023-12-22T11:19:57;99372.69;;;11.34;100.00
80102;BME280;69407;44.966;19.622;2023-12-22T11:22:23;99368.97;;;11.36;100.00
80102;BME280;69407;44.966;19.622;2023-12-22T11:24:49;99366.03;;;11.79;100.00
80102;BME280;69407;44.966;19.622;2023-12-22T11:27:19;99370.03;;;11.34;100.00
80102;BME280;69407;44.966;19.622;2023-12-22T11:29:47;99366.44;;;11.22;100.00
80102;BME280;69407;44.966;19.622;2023-12-22T11:32:15;99368.59;;;10.77;100.00
80102;BME280;69407;44.966;19.622;2023-12-22T11:34:42;99356.84;;;10.69;100.00
80102;BME280;69407;44.966;19.622;2023-12-22T11:37:10;99354.03;;;10.45;100.00
80102;BME280;69407;44.966;19.622;2023-12-22T11:39:36;99363.09;;;10.41;100.00
80102;BME280;69407;44.966;19.622;2023-12-22T11:42:04;99352.06;;;10.61;100.00
80102;BME280;69407;44.966;19.622;2023-12-22T11:44:31;99351.53;;;10.29;100.00
80102;BME280;69407;44.966;19.622;2023-12-22T11:47:17;99346.19;;;12.69;100.00
80102;BME280;69407;44.966;19.622;2023-12-22T11:49:47;99349.44;;;12.14;100.00
80102;BME280;69407;44.966;19.622;2023-12-22T11:52:25;99349.16;;;13.24;94.97
80102;BME280;69407;44.966;19.622;2023-12-22T11:54:52;99340.75;;;13.52;87.34
80102;BME280;69407;44.966;19.622;2023-12-22T11:57:45;99339.78;;;13.42;86.96
80102;BME280;69407;44.966;19.622;2023-12-22T12:00:38;99326.88;;;13.26;84.60
80102;BME280;69407;44.966;19.622;2023-12-22T12:03:06;99328.69;;;13.70;82.13
80102;BME280;69407;44.966;19.622;2023-12-22T12:05:32;99319.50;;;13.52;81.62
80102;BME280;69407;44.966;19.622;2023-12-22T12:08:06;99330.84;;;13.54;79.13
80102;BME280;69407;44.966;19.622;2023-12-22T12:13:08;99339.84;;;14.62;77.47
80102;BME280;69407;44.966;19.622;2023-12-22T12:15:34;99344.72;;;14.78;72.47
80102;BME280;69407;44.966;19.622;2023-12-22T12:18:01;99361.28;;;13.61;73.75
80102;BME280;69407;44.966;19.622;2023-12-22T12:20:27;99355.44;;;14.01;71.10
80102;BME280;69407;44.966;19.622;2023-12-22T12:22:54;99361.25;;;14.92;68.88
80102;BME280;69407;44.966;19.622;2023-12-22T12:25:22;99359.31;;;14.19;73.01
80102;BME280;69407;44.966;19.622;2023-12-22T12:27:53;99353.47;;;14.80;61.63
80102;BME280;69407;44.966;19.622;2023-12-22T12:30:26;99357.91;;;13.59;64.94
80102;BME280;69407;44.966;19.622;2023-12-22T12:32:51;99361.19;;;12.81;63.82
80102;BME280;69407;44.966;19.622;2023-12-22T12:35:18;99371.75;;;13.05;69.88
80102;BME280;69407;44.966;19.622;2023-12-22T12:37:44;99360.53;;;12.43;66.12
80102;BME280;69407;44.966;19.622;2023-12-22T12:40:11;99364.94;;;11.94;71.69
80102;BME280;69407;44.966;19.622;2023-12-22T12:42:37;99381.69;;;11.82;74.34
80102;BME280;69407;44.966;19.622;2023-12-22T12:45:07;99384.25;;;12.20;74.42
80102;BME280;69407;44.966;19.622;2023-12-22T12:47:33;99406.13;;;11.86;79.62
80102;BME280;69407;44.966;19.622;2023-12-22T12:50:00;99414.50;;;11.41;86.56
80102;BME280;69407;44.966;19.622;2023-12-22T12:52:26;99408.94;;;11.06;91.48
80102;BME280;69407;44.966;19.622;2023-12-22T12:54:52;99405.00;;;10.99;81.44